sensor_id;sensor_type;location;lat;lon;timestamp;pressure;altitude;pressure_sealevel;temperature;humidity
48527;BME280;34317;51.660;5.824;2023-04-08T00:01:03;102158.66;;;12.36;61.70
48527;BME280;34317;51.660;5.824;2023-04-08T00:03:32;102152.47;;;12.35;61.62
48527;BME280;34317;51.660;5.824;2023-04-08T00:05:59;102156.00;;;12.36;61.63
48527;BME280;34317;51.660;5.824;2023-04-08T00:08:29;102156.06;;;12.34;61.62
48527;BME280;34317;51.660;5.824;2023-04-08T00:10:56;102156.91;;;12.35;61.78
48527;BME280;34317;51.660;5.824;2023-04-08T00:13:24;102160.47;;;12.34;61.89
48527;BME280;34317;51.660;5.824;2023-04-08T00:15:52;102164.88;;;12.35;61.66
48527;BME280;34317;51.660;5.824;2023-04-08T00:18:19;102156.91;;;12.35;61.91
48527;BME280;34317;51.660;5.824;2023-04-08T00:20:47;102151.59;;;12.35;61.93
48527;BME280;34317;51.660;5.824;2023-04-08T00:23:15;102160.38;;;12.37;62.01
48527;BME280;34317;51.660;5.824;2023-04-08T00:25:42;102155.06;;;12.37;62.09
48527;BME280;34317;51.660;5.824;2023-04-08T00:28:09;102155.06;;;12.37;61.90
48527;BME280;34317;51.660;5.824;2023-04-08T00:30:37;102162.16;;;12.38;62.02
48527;BME280;34317;51.660;5.824;2023-04-08T00:33:04;102160.38;;;12.37;62.03
48527;BME280;34317;51.660;5.824;2023-04-08T00:35:31;102167.47;;;12.38;62.08
48527;BME280;34317;51.660;5.824;2023-04-08T00:37:58;102162.16;;;12.38;61.94
48527;BME280;34317;51.660;5.824;2023-04-08T00:40:26;102163.88;;;12.39;61.91
48527;BME280;34317;51.660;5.824;2023-04-08T00:42:56;102162.97;;;12.40;61.96
48527;BME280;34317;51.660;5.824;2023-04-08T00:45:23;102167.34;;;12.41;61.91
48527;BME280;34317;51.660;5.824;2023-04-08T00:47:50;102174.41;;;12.42;61.93
48527;BME280;34317;51.660;5.824;2023-04-08T00:50:19;102177.88;;;12.44;61.98
48527;BME280;34317;51.660;5.824;2023-04-08T00:52:46;102183.13;;;12.47;61.97
48527;BME280;34317;51.660;5.824;2023-04-08T00:55:13;102174.22;;;12.48;62.01
48527;BME280;34317;51.660;5.824;2023-04-08T00:57:41;102177.69;;;12.50;61.92
48527;BME280;34317;51.660;5.824;2023-04-08T01:00:08;102181.28;;;12.49;61.76
48527;BME280;34317;51.660;5.824;2023-04-08T01:05:35;102179.53;;;12.48;61.96
48527;BME280;34317;51.660;5.824;2023-04-08T01:08:09;102175.06;;;12.49;61.84
48527;BME280;34317;51.660;5.824;2023-04-08T01:10:39;102178.53;;;12.51;61.94
48527;BME280;34317;51.660;5.824;2023-04-08T01:13:11;102174.13;;;12.51;61.98
48527;BME280;34317;51.660;5.824;2023-04-08T01:15:41;102175.84;;;12.52;61.83
48527;BME280;34317;51.660;5.824;2023-04-08T01:18:12;102179.31;;;12.54;61.98
48527;BME280;34317;51.660;5.824;2023-04-08T01:20:41;102176.63;;;12.56;61.82
48527;BME280;34317;51.660;5.824;2023-04-08T01:25:52;102181.06;;;12.55;61.85
48527;BME280;34317;51.660;5.824;2023-04-08T01:28:22;102181.06;;;12.55;61.58
48527;BME280;34317;51.660;5.824;2023-04-08T01:30:55;102176.66;;;12.54;61.86
48527;BME280;34317;51.660;5.824;2023-04-08T01:33:27;102184.53;;;12.57;61.75
48527;BME280;34317;51.660;5.824;2023-04-08T01:35:55;102186.34;;;12.57;61.83
48527;BME280;34317;51.660;5.824;2023-04-08T01:38:24;102188.03;;;12.59;61.70
48527;BME280;34317;51.660;5.824;2023-04-08T01:41:13;102191.63;;;12.58;61.62
48527;BME280;34317;51.660;5.824;2023-04-08T01:43:45;102188.03;;;12.59;61.63
48527;BME280;34317;51.660;5.824;2023-04-08T01:46:20;102189.88;;;12.57;61.73
48527;BME280;34317;51.660;5.824;2023-04-08T01:48:57;102194.28;;;12.58;61.60
48527;BME280;34317;51.660;5.824;2023-04-08T01:51:41;102190.75;;;12.56;61.44
48527;BME280;34317;51.660;5.824;2023-04-08T01:54:17;102197.00;;;12.55;61.53
48527;BME280;34317;51.660;5.824;2023-04-08T01:59:47;102198.94;;;12.50;61.46
48527;BME280;34317;51.660;5.824;2023-04-08T02:02:19;102200.78;;;12.48;61.55
48527;BME280;34317;51.660;5.824;2023-04-08T02:04:47;102197.31;;;12.46;61.46
48527;BME280;34317;51.660;5.824;2023-04-08T02:07:15;102199.06;;;12.47;61.40
48527;BME280;34317;51.660;5.824;2023-04-08T02:09:47;102200.88;;;12.45;61.37
48527;BME280;34317;51.660;5.824;2023-04-08T02:12:14;102192.88;;;12.45;61.30
48527;BME280;34317;51.660;5.824;2023-04-08T02:14:41;102197.38;;;12.43;61.31
48527;BME280;34317;51.660;5.824;2023-04-08T02:18:05;102193.88;;;12.42;61.24
48527;BME280;34317;51.660;5.824;2023-04-08T02:20:20;102199.22;;;12.41;61.26
48527;BME280;34317;51.660;5.824;2023-04-08T02:23:00;102207.22;;;12.39;61.17
48527;BME280;34317;51.660;5.824;2023-04-08T02:25:29;102199.34;;;12.38;61.12
48527;BME280;34317;51.660;5.824;2023-04-08T02:28:03;102206.50;;;12.36;61.03
48527;BME280;34317;51.660;5.824;2023-04-08T02:30:33;102202.97;;;12.34;61.13
48527;BME280;34317;51.660;5.824;2023-04-08T02:33:05;102205.72;;;12.32;61.12
48527;BME280;34317;51.660;5.824;2023-04-08T02:35:35;102203.94;;;12.31;61.07
48527;BME280;34317;51.660;5.824;2023-04-08T02:38:03;102207.59;;;12.29;60.97
48527;BME280;34317;51.660;5.824;2023-04-08T02:40:32;102213.81;;;12.27;60.96
48527;BME280;34317;51.660;5.824;2023-04-08T02:43:02;102210.31;;;12.25;60.94
48527;BME280;34317;51.660;5.824;2023-04-08T02:45:31;102211.31;;;12.23;60.93
48527;BME280;34317;51.660;5.824;2023-04-08T02:47:59;102208.69;;;12.21;60.82
48527;BME280;34317;51.660;5.824;2023-04-08T02:50:28;102207.84;;;12.19;60.99
48527;BME280;34317;51.660;5.824;2023-04-08T02:52:55;102201.72;;;12.17;60.96
48527;BME280;34317;51.660;5.824;2023-04-08T02:55:23;102205.28;;;12.16;60.92
48527;BME280;34317;51.660;5.824;2023-04-08T02:57:50;102201.81;;;12.14;60.88
48527;BME280;34317;51.660;5.824;2023-04-08T03:00:17;102206.25;;;12.14;60.94
48527;BME280;34317;51.660;5.824;2023-04-08T03:02:45;102207.22;;;12.11;60.83
48527;BME280;34317;51.660;5.824;2023-04-08T03:05:13;102217.84;;;12.11;60.79
48527;BME280;34317;51.660;5.824;2023-04-08T03:07:42;102212.63;;;12.08;60.79
48527;BME280;34317;51.660;5.824;2023-04-08T03:10:09;102210.97;;;12.04;60.84
48527;BME280;34317;51.660;5.824;2023-04-08T03:12:37;102208.44;;;11.99;60.66
48527;BME280;34317;51.660;5.824;2023-04-08T03:15:04;102218.28;;;11.96;60.34
48527;BME280;34317;51.660;5.824;2023-04-08T03:17:32;102218.38;;;11.93;60.83
48527;BME280;34317;51.660;5.824;2023-04-08T03:20:01;102220.25;;;11.87;60.67
48527;BME280;34317;51.660;5.824;2023-04-08T03:22:32;102222.16;;;11.82;60.54
48527;BME280;34317;51.660;5.824;2023-04-08T03:24:59;102220.59;;;11.75;60.47
48527;BME280;34317;51.660;5.824;2023-04-08T03:27:26;102213.72;;;11.68;60.49
48527;BME280;34317;51.660;5.824;2023-04-08T03:29:54;102217.47;;;11.61;60.47
48527;BME280;34317;51.660;5.824;2023-04-08T03:32:25;102214.03;;;11.56;60.49
48527;BME280;34317;51.660;5.824;2023-04-08T03:34:52;102215.94;;;11.50;60.49
48527;BME280;34317;51.660;5.824;2023-04-08T03:37:20;102219.59;;;11.46;60.71
48527;BME280;34317;51.660;5.824;2023-04-08T03:39:47;102222.38;;;11.42;60.74
48527;BME280;34317;51.660;5.824;2023-04-08T03:42:16;102230.44;;;11.37;60.69
48527;BME280;34317;51.660;5.824;2023-04-08T03:44:44;102226.16;;;11.33;60.80
48527;BME280;34317;51.660;5.824;2023-04-08T03:47:11;102226.28;;;11.28;60.85
48527;BME280;34317;51.660;5.824;2023-04-08T03:49:38;102223.72;;;11.24;60.82
48527;BME280;34317;51.660;5.824;2023-04-08T03:52:05;102230.03;;;11.20;61.07
48527;BME280;34317;51.660;5.824;2023-04-08T03:54:33;102231.88;;;11.16;61.16
48527;BME280;34317;51.660;5.824;2023-04-08T03:57:04;102238.13;;;11.14;61.04
48527;BME280;34317;51.660;5.824;2023-04-08T03:59:31;102232.00;;;11.12;61.18
48527;BME280;34317;51.660;5.824;2023-04-08T04:01:59;102241.78;;;11.09;61.09
48527;BME280;34317;51.660;5.824;2023-04-08T04:04:28;102235.63;;;11.07;61.34
48527;BME280;34317;51.660;5.824;2023-04-08T04:06:55;102232.97;;;11.07;61.22
48527;BME280;34317;51.660;5.824;2023-04-08T04:09:22;102240.91;;;11.07;61.27
48527;BME280;34317;51.660;5.824;2023-04-08T04:11:49;102240.03;;;11.08;61.25
48527;BME280;34317;51.660;5.824;2023-04-08T04:14:17;102245.31;;;11.08;61.30
48527;BME280;34317;51.660;5.824;2023-04-08T04:16:44;102243.50;;;11.10;61.42
48527;BME280;34317;51.660;5.824;2023-04-08T04:19:12;102245.25;;;11.12;61.55
48527;BME280;34317;51.660;5.824;2023-04-08T04:21:39;102248.75;;;11.14;61.59
48527;BME280;34317;51.660;5.824;2023-04-08T04:24:07;102254.91;;;11.14;61.56
48527;BME280;34317;51.660;5.824;2023-04-08T04:26:34;102254.94;;;11.13;61.63
48527;BME280;34317;51.660;5.824;2023-04-08T04:29:01;102253.25;;;11.10;61.75
48527;BME280;34317;51.660;5.824;2023-04-08T04:31:28;102259.47;;;11.07;61.73
48527;BME280;34317;51.660;5.824;2023-04-08T04:33:55;102265.72;;;11.06;61.97
48527;BME280;34317;51.660;5.824;2023-04-08T04:36:23;102271.00;;;11.06;61.81
48527;BME280;34317;51.660;5.824;2023-04-08T04:38:50;102260.41;;;11.06;62.07
48527;BME280;34317;51.660;5.824;2023-04-08T04:41:18;102270.19;;;11.04;62.09
48527;BME280;34317;51.660;5.824;2023-04-08T04:43:45;102269.31;;;11.04;61.94
48527;BME280;34317;51.660;5.824;2023-04-08T04:46:12;102272.88;;;11.01;62.07
48527;BME280;34317;51.660;5.824;2023-04-08T04:48:42;102272.91;;;11.00;62.19
48527;BME280;34317;51.660;5.824;2023-04-08T04:51:09;102279.13;;;11.00;62.45
48527;BME280;34317;51.660;5.824;2023-04-08T04:53:36;102280.84;;;11.01;62.45
48527;BME280;34317;51.660;5.824;2023-04-08T04:56:04;102272.00;;;11.02;62.62
48527;BME280;34317;51.660;5.824;2023-04-08T04:58:31;102280.78;;;11.04;62.46
48527;BME280;34317;51.660;5.824;2023-04-08T05:00:58;102283.34;;;11.07;62.46
48527;BME280;34317;51.660;5.824;2023-04-08T05:03:25;102285.94;;;11.10;62.53
48527;BME280;34317;51.660;5.824;2023-04-08T05:05:53;102284.13;;;11.13;62.34
48527;BME280;34317;51.660;5.824;2023-04-08T05:08:21;102277.00;;;11.15;62.68
48527;BME280;34317;51.660;5.824;2023-04-08T05:10:49;102289.25;;;11.19;62.45
48527;BME280;34317;51.660;5.824;2023-04-08T05:13:17;102283.94;;;11.19;62.70
48527;BME280;34317;51.660;5.824;2023-04-08T05:15:44;102296.31;;;11.20;62.74
48527;BME280;34317;51.660;5.824;2023-04-08T05:18:15;102300.75;;;11.19;62.69
48527;BME280;34317;51.660;5.824;2023-04-08T05:20:42;102303.38;;;11.21;62.79
48527;BME280;34317;51.660;5.824;2023-04-08T05:23:09;102312.16;;;11.23;62.71
48527;BME280;34317;51.660;5.824;2023-04-08T05:25:37;102308.59;;;11.24;62.93
48527;BME280;34317;51.660;5.824;2023-04-08T05:28:06;102308.59;;;11.24;62.85
48527;BME280;34317;51.660;5.824;2023-04-08T05:30:33;102313.84;;;11.27;62.84
48527;BME280;34317;51.660;5.824;2023-04-08T05:33:01;102311.16;;;11.28;62.99
48527;BME280;34317;51.660;5.824;2023-04-08T05:35:28;102315.50;;;11.31;62.89
48527;BME280;34317;51.660;5.824;2023-04-08T05:37:56;102318.97;;;11.33;62.93
48527;BME280;34317;51.660;5.824;2023-04-08T05:40:23;102326.03;;;11.34;62.90
48527;BME280;34317;51.660;5.824;2023-04-08T05:42:51;102329.59;;;11.33;62.76
48527;BME280;34317;51.660;5.824;2023-04-08T05:45:19;102335.88;;;11.29;62.56
48527;BME280;34317;51.660;5.824;2023-04-08T05:47:46;102330.81;;;11.18;62.40
48527;BME280;34317;51.660;5.824;2023-04-08T05:50:14;102328.41;;;11.07;62.54
48527;BME280;34317;51.660;5.824;2023-04-08T05:52:44;102337.44;;;11.00;62.67
48527;BME280;34317;51.660;5.824;2023-04-08T05:55:12;102332.25;;;10.94;62.72
48527;BME280;34317;51.660;5.824;2023-04-08T05:57:41;102329.72;;;10.89;62.50
48527;BME280;34317;51.660;5.824;2023-04-08T06:00:09;102335.97;;;10.87;62.98
48527;BME280;34317;51.660;5.824;2023-04-08T06:02:38;102334.28;;;10.83;62.86
48527;BME280;34317;51.660;5.824;2023-04-08T06:05:05;102341.38;;;10.81;62.89
48527;BME280;34317;51.660;5.824;2023-04-08T06:07:34;102342.28;;;10.81;63.05
48527;BME280;34317;51.660;5.824;2023-04-08T06:10:01;102347.59;;;10.81;63.10
48527;BME280;34317;51.660;5.824;2023-04-08T06:12:29;102337.00;;;10.80;63.00
48527;BME280;34317;51.660;5.824;2023-04-08T06:14:56;102348.50;;;10.79;63.09
48527;BME280;34317;51.660;5.824;2023-04-08T06:17:23;102359.19;;;10.76;62.99
48527;BME280;34317;51.660;5.824;2023-04-08T06:19:50;102357.50;;;10.71;62.88
48527;BME280;34317;51.660;5.824;2023-04-08T06:22:18;102355.81;;;10.67;62.88
48527;BME280;34317;51.660;5.824;2023-04-08T06:24:46;102365.59;;;10.64;62.97
48527;BME280;34317;51.660;5.824;2023-04-08T06:27:15;102364.78;;;10.60;62.62
48527;BME280;34317;51.660;5.824;2023-04-08T06:29:42;102361.31;;;10.58;62.95
48527;BME280;34317;51.660;5.824;2023-04-08T06:32:09;102370.16;;;10.57;63.01
48527;BME280;34317;51.660;5.824;2023-04-08T06:34:37;102370.22;;;10.54;63.15
48527;BME280;34317;51.660;5.824;2023-04-08T06:37:07;102367.59;;;10.52;63.10
48527;BME280;34317;51.660;5.824;2023-04-08T06:39:34;102372.94;;;10.51;63.18
48527;BME280;34317;51.660;5.824;2023-04-08T06:42:03;102368.53;;;10.50;63.10
48527;BME280;34317;51.660;5.824;2023-04-08T06:45:05;102376.59;;;10.45;63.09
48527;BME280;34317;51.660;5.824;2023-04-08T06:47:35;102381.00;;;10.45;63.17
48527;BME280;34317;51.660;5.824;2023-04-08T06:50:03;102380.94;;;10.48;63.13
48527;BME280;34317;51.660;5.824;2023-04-08T06:52:30;102387.97;;;10.49;63.40
48527;BME280;34317;51.660;5.824;2023-04-08T06:54:57;102386.19;;;10.51;63.32
48527;BME280;34317;51.660;5.824;2023-04-08T06:57:24;102393.22;;;10.52;63.32
48527;BME280;34317;51.660;5.824;2023-04-08T06:59:52;102391.50;;;10.51;63.07
48527;BME280;34317;51.660;5.824;2023-04-08T07:02:20;102398.53;;;10.52;63.37
48527;BME280;34317;51.660;5.824;2023-04-08T07:04:48;102409.97;;;10.54;63.03
48527;BME280;34317;51.660;5.824;2023-04-08T07:07:16;102414.41;;;10.52;63.07
48527;BME280;34317;51.660;5.824;2023-04-08T07:09:43;102415.34;;;10.49;63.25
48527;BME280;34317;51.660;5.824;2023-04-08T07:12:12;102414.47;;;10.49;63.13
48527;BME280;34317;51.660;5.824;2023-04-08T07:14:39;102414.47;;;10.49;63.17
48527;BME280;34317;51.660;5.824;2023-04-08T07:17:06;102416.22;;;10.50;63.12
48527;BME280;34317;51.660;5.824;2023-04-08T07:19:34;102418.03;;;10.48;63.39
48527;BME280;34317;51.660;5.824;2023-04-08T07:22:01;102421.56;;;10.47;63.03
48527;BME280;34317;51.660;5.824;2023-04-08T07:24:29;102421.56;;;10.47;62.80
48527;BME280;34317;51.660;5.824;2023-04-08T07:26:56;102430.44;;;10.46;62.94
48527;BME280;34317;51.660;5.824;2023-04-08T07:29:24;102433.06;;;10.47;63.07
48527;BME280;34317;51.660;5.824;2023-04-08T07:31:51;102432.16;;;10.47;62.91
48527;BME280;34317;51.660;5.824;2023-04-08T07:34:18;102434.91;;;10.44;62.85
48527;BME280;34317;51.660;5.824;2023-04-08T07:36:45;102436.69;;;10.42;62.78
48527;BME280;34317;51.660;5.824;2023-04-08T07:39:12;102437.59;;;10.41;62.97
48527;BME280;34317;51.660;5.824;2023-04-08T07:41:40;102441.16;;;10.40;62.84
48527;BME280;34317;51.660;5.824;2023-04-08T07:44:07;102437.59;;;10.41;63.09
48527;BME280;34317;51.660;5.824;2023-04-08T07:46:37;102440.22;;;10.42;63.19
48527;BME280;34317;51.660;5.824;2023-04-08T07:49:08;102446.38;;;10.43;63.25
48527;BME280;34317;51.660;5.824;2023-04-08T07:51:35;102440.19;;;10.44;62.92
48527;BME280;34317;51.660;5.824;2023-04-08T07:54:02;102444.56;;;10.45;62.86
48527;BME280;34317;51.660;5.824;2023-04-08T07:56:30;102441.03;;;10.46;63.05
48527;BME280;34317;51.660;5.824;2023-04-08T07:58:57;102447.19;;;10.46;62.84
48527;BME280;34317;51.660;5.824;2023-04-08T08:01:24;102447.16;;;10.48;63.05
48527;BME280;34317;51.660;5.824;2023-04-08T08:03:52;102445.38;;;10.48;62.80
48527;BME280;34317;51.660;5.824;2023-04-08T08:06:20;102444.47;;;10.51;63.13
48527;BME280;34317;51.660;5.824;2023-04-08T08:08:48;102454.13;;;10.54;62.96
48527;BME280;34317;51.660;5.824;2023-04-08T08:11:15;102461.13;;;10.56;62.89
48527;BME280;34317;51.660;5.824;2023-04-08T08:13:42;102457.56;;;10.59;62.55
48527;BME280;34317;51.660;5.824;2023-04-08T08:16:11;102456.63;;;10.61;63.00
48527;BME280;34317;51.660;5.824;2023-04-08T08:18:40;102460.13;;;10.63;62.99
48527;BME280;34317;51.660;5.824;2023-04-08T08:21:08;102463.63;;;10.65;62.83
48527;BME280;34317;51.660;5.824;2023-04-08T08:23:36;102467.97;;;10.68;62.96
48527;BME280;34317;51.660;5.824;2023-04-08T08:26:06;102465.28;;;10.69;62.77
48527;BME280;34317;51.660;5.824;2023-04-08T08:28:36;102477.66;;;10.70;62.84
48527;BME280;34317;51.660;5.824;2023-04-08T08:31:04;102477.56;;;10.74;62.73
48527;BME280;34317;51.660;5.824;2023-04-08T08:33:33;102479.28;;;10.78;62.73
48527;BME280;34317;51.660;5.824;2023-04-08T08:36:00;102480.97;;;10.82;62.88
48527;BME280;34317;51.660;5.824;2023-04-08T08:38:30;102475.53;;;10.88;62.89
48527;BME280;34317;51.660;5.824;2023-04-08T08:40:58;102476.31;;;10.93;62.69
48527;BME280;34317;51.660;5.824;2023-04-08T08:43:26;102483.25;;;11.00;62.75
48527;BME280;34317;51.660;5.824;2023-04-08T08:45:54;102484.91;;;11.06;62.45
48527;BME280;34317;51.660;5.824;2023-04-08T08:48:24;102487.44;;;11.10;62.60
48527;BME280;34317;51.660;5.824;2023-04-08T08:50:51;102473.22;;;11.15;62.55
48527;BME280;34317;51.660;5.824;2023-04-08T08:53:19;102477.53;;;11.20;62.35
48527;BME280;34317;51.660;5.824;2023-04-08T08:55:46;102480.09;;;11.25;62.53
48527;BME280;34317;51.660;5.824;2023-04-08T08:58:17;102486.13;;;11.32;62.42
48527;BME280;34317;51.660;5.824;2023-04-08T09:00:44;102483.25;;;11.42;62.44
48527;BME280;34317;51.660;5.824;2023-04-08T09:03:20;102485.72;;;11.50;62.38
48527;BME280;34317;51.660;5.824;2023-04-08T09:08:43;102497.00;;;11.60;62.22
48527;BME280;34317;51.660;5.824;2023-04-08T09:11:15;102501.28;;;11.65;62.25
48527;BME280;34317;51.660;5.824;2023-04-08T09:13:44;102502.09;;;11.69;62.13
48527;BME280;34317;51.660;5.824;2023-04-08T09:16:14;102509.91;;;11.75;62.21
48527;BME280;34317;51.660;5.824;2023-04-08T09:18:45;102508.13;;;11.77;62.12
48527;BME280;34317;51.660;5.824;2023-04-08T09:21:14;102510.69;;;11.80;62.00
48527;BME280;34317;51.660;5.824;2023-04-08T09:23:46;102508.78;;;11.85;62.09
48527;BME280;34317;51.660;5.824;2023-04-08T09:26:20;102514.00;;;11.92;62.08
48527;BME280;34317;51.660;5.824;2023-04-08T09:29:20;102513.94;;;11.95;62.05
48527;BME280;34317;51.660;5.824;2023-04-08T09:31:54;102519.09;;;12.01;61.90
48527;BME280;34317;51.660;5.824;2023-04-08T09:34:23;102518.91;;;12.07;61.99
48527;BME280;34317;51.660;5.824;2023-04-08T09:36:51;102523.28;;;12.11;61.82
48527;BME280;34317;51.660;5.824;2023-04-08T09:39:19;102532.81;;;12.18;61.92
48527;BME280;34317;51.660;5.824;2023-04-08T09:41:48;102529.09;;;12.25;61.56
48527;BME280;34317;51.660;5.824;2023-04-08T09:44:15;102521.88;;;12.32;61.43
48527;BME280;34317;51.660;5.824;2023-04-08T09:49:33;102522.91;;;12.59;61.64
48527;BME280;34317;51.660;5.824;2023-04-08T09:54:48;102518.34;;;12.97;61.79
48527;BME280;34317;51.660;5.824;2023-04-08T09:57:28;102524.78;;;13.20;61.52
48527;BME280;34317;51.660;5.824;2023-04-08T10:00:16;102513.63;;;13.38;61.47
48527;BME280;34317;51.660;5.824;2023-04-08T10:03:10;102513.09;;;13.57;61.51
48527;BME280;34317;51.660;5.824;2023-04-08T10:05:42;102498.19;;;13.79;61.27
48527;BME280;34317;51.660;5.824;2023-04-08T10:08:11;102504.94;;;13.90;60.74
48527;BME280;34317;51.660;5.824;2023-04-08T10:10:39;102503.88;;;13.95;60.42
48527;BME280;34317;51.660;5.824;2023-04-08T10:13:08;102506.28;;;14.03;59.98
48527;BME280;34317;51.660;5.824;2023-04-08T10:15:36;102497.28;;;14.07;59.61
48527;BME280;34317;51.660;5.824;2023-04-08T10:23:06;102492.31;;;14.23;59.64
48527;BME280;34317;51.660;5.824;2023-04-08T10:25:40;102496.34;;;14.35;59.48
48527;BME280;34317;51.660;5.824;2023-04-08T10:30:43;102495.91;;;14.47;58.96
48527;BME280;34317;51.660;5.824;2023-04-08T10:33:21;102486.78;;;14.54;58.91
48527;BME280;34317;51.660;5.824;2023-04-08T10:35:53;102491.84;;;14.64;58.77
48527;BME280;34317;51.660;5.824;2023-04-08T10:38:22;102491.47;;;14.73;58.36
48527;BME280;34317;51.660;5.824;2023-04-08T10:40:49;102489.41;;;14.81;58.51
48527;BME280;34317;51.660;5.824;2023-04-08T10:43:19;102486.53;;;14.87;58.37
48527;BME280;34317;51.660;5.824;2023-04-08T10:45:46;102480.84;;;14.96;58.41
48527;BME280;34317;51.660;5.824;2023-04-08T10:48:20;102493.66;;;15.10;58.49
48527;BME280;34317;51.660;5.824;2023-04-08T10:50:55;102491.41;;;15.23;57.64
48527;BME280;34317;51.660;5.824;2023-04-08T10:56:08;102489.31;;;15.31;56.75
48527;BME280;34317;51.660;5.824;2023-04-08T10:58:50;102487.31;;;15.36;56.82
48527;BME280;34317;51.660;5.824;2023-04-08T11:01:18;102484.44;;;15.43;57.13
48527;BME280;34317;51.660;5.824;2023-04-08T11:03:45;102484.13;;;15.50;57.31
48527;BME280;34317;51.660;5.824;2023-04-08T11:06:13;102487.31;;;15.60;56.96
48527;BME280;34317;51.660;5.824;2023-04-08T11:08:42;102484.28;;;15.69;56.90
48527;BME280;34317;51.660;5.824;2023-04-08T11:11:11;102485.81;;;15.76;57.08
48527;BME280;34317;51.660;5.824;2023-04-08T11:13:39;102474.72;;;15.86;57.03
48527;BME280;34317;51.660;5.824;2023-04-08T11:16:20;102475.28;;;15.94;56.39
48527;BME280;34317;51.660;5.824;2023-04-08T11:18:47;102463.41;;;16.01;56.21
48527;BME280;34317;51.660;5.824;2023-04-08T11:21:16;102461.28;;;16.09;56.67
48527;BME280;34317;51.660;5.824;2023-04-08T11:23:48;102467.84;;;16.23;56.55
48527;BME280;34317;51.660;5.824;2023-04-08T11:26:16;102465.56;;;16.34;56.35
48527;BME280;34317;51.660;5.824;2023-04-08T11:28:45;102464.16;;;16.46;56.21
48527;BME280;34317;51.660;5.824;2023-04-08T11:31:15;102468.91;;;16.60;56.26
48527;BME280;34317;51.660;5.824;2023-04-08T11:33:46;102460.31;;;16.72;56.08
48527;BME280;34317;51.660;5.824;2023-04-08T11:36:16;102470.53;;;16.84;55.77
48527;BME280;34317;51.660;5.824;2023-04-08T11:38:44;102471.69;;;16.98;55.94
48527;BME280;34317;51.660;5.824;2023-04-08T11:41:14;102462.16;;;17.11;55.35
48527;BME280;34317;51.660;5.824;2023-04-08T11:43:55;102464.41;;;17.20;54.86
48527;BME280;34317;51.660;5.824;2023-04-08T11:46:23;102454.34;;;17.25;54.44
48527;BME280;34317;51.660;5.824;2023-04-08T11:49:10;102456.06;;;17.26;54.02
48527;BME280;34317;51.660;5.824;2023-04-08T11:51:58;102455.78;;;17.32;53.34
48527;BME280;34317;51.660;5.824;2023-04-08T11:54:30;102459.25;;;17.35;53.21
48527;BME280;34317;51.660;5.824;2023-04-08T11:56:58;102459.09;;;17.38;52.88
48527;BME280;34317;51.660;5.824;2023-04-08T11:59:25;102454.47;;;17.41;52.28
48527;BME280;34317;51.660;5.824;2023-04-08T12:01:56;102455.97;;;17.47;51.92
48527;BME280;34317;51.660;5.824;2023-04-08T12:04:25;102460.25;;;17.51;50.97
48527;BME280;34317;51.660;5.824;2023-04-08T12:06:52;102454.88;;;17.51;49.86
48527;BME280;34317;51.660;5.824;2023-04-08T12:09:21;102472.84;;;17.49;49.49
48527;BME280;34317;51.660;5.824;2023-04-08T12:11:48;102471.25;;;17.45;48.31
48527;BME280;34317;51.660;5.824;2023-04-08T12:14:16;102473.44;;;17.37;47.38
48527;BME280;34317;51.660;5.824;2023-04-08T12:16:43;102472.13;;;17.26;47.47
48527;BME280;34317;51.660;5.824;2023-04-08T12:19:11;102463.44;;;17.21;47.95
48527;BME280;34317;51.660;5.824;2023-04-08T12:21:38;102458.25;;;17.18;48.24
48527;BME280;34317;51.660;5.824;2023-04-08T12:24:05;102467.22;;;17.17;47.92
48527;BME280;34317;51.660;5.824;2023-04-08T12:26:33;102458.38;;;17.15;46.73
48527;BME280;34317;51.660;5.824;2023-04-08T12:29:00;102453.31;;;17.09;46.46
48527;BME280;34317;51.660;5.824;2023-04-08T12:31:27;102456.28;;;17.03;46.65
48527;BME280;34317;51.660;5.824;2023-04-08T12:33:55;102458.31;;;16.98;46.30
48527;BME280;34317;51.660;5.824;2023-04-08T12:36:22;102463.06;;;16.91;46.54
48527;BME280;34317;51.660;5.824;2023-04-08T12:38:51;102468.47;;;16.89;46.66
48527;BME280;34317;51.660;5.824;2023-04-08T12:41:18;102468.47;;;16.89;46.68
48527;BME280;34317;51.660;5.824;2023-04-08T12:43:46;102470.34;;;16.87;46.47
48527;BME280;34317;51.660;5.824;2023-04-08T12:46:13;102465.25;;;16.81;46.12
48527;BME280;34317;51.660;5.824;2023-04-08T12:48:40;102460.03;;;16.78;46.35
48527;BME280;34317;51.660;5.824;2023-04-08T12:51:08;102461.91;;;16.76;46.67
48527;BME280;34317;51.660;5.824;2023-04-08T12:53:36;102460.19;;;16.75;45.92
48527;BME280;34317;51.660;5.824;2023-04-08T12:56:03;102465.53;;;16.75;45.92
48527;BME280;34317;51.660;5.824;2023-04-08T12:58:31;102465.53;;;16.75;45.87
48527;BME280;34317;51.660;5.824;2023-04-08T13:00:58;102463.66;;;16.77;45.78
48527;BME280;34317;51.660;5.824;2023-04-08T13:03:25;102463.66;;;16.77;45.78
48527;BME280;34317;51.660;5.824;2023-04-08T13:05:55;102460.03;;;16.78;45.87
48527;BME280;34317;51.660;5.824;2023-04-08T13:08:24;102461.69;;;16.82;45.50
48527;BME280;34317;51.660;5.824;2023-04-08T13:10:51;102458.06;;;16.83;45.28
48527;BME280;34317;51.660;5.824;2023-04-08T13:13:18;102456.19;;;16.85;45.34
48527;BME280;34317;51.660;5.824;2023-04-08T13:15:45;102461.28;;;16.91;45.46
48527;BME280;34317;51.660;5.824;2023-04-08T13:18:13;102455.63;;;16.98;44.75
48527;BME280;34317;51.660;5.824;2023-04-08T13:20:40;102459.09;;;17.00;44.36
48527;BME280;34317;51.660;5.824;2023-04-08T13:23:08;102455.34;;;17.04;44.72
48527;BME280;34317;51.660;5.824;2023-04-08T13:25:35;102457.59;;;17.13;44.51
48527;BME280;34317;51.660;5.824;2023-04-08T13:28:03;102453.53;;;17.23;43.70